Boscombe Down, United Kingdom
Current Conditions -  °F | °C
As of 9:50 PM on Friday 28 Nov 2014 (Local Time) from EGDM Reporting Station
Light Rain Light Rain  
Wind Chill: 50°   Ceiling: 5000
Heat Index: 50°   Visibility: 5mi
Dew Point: 48°   Wind: 13mph
Humidity: 94%   Direction: 70°ENE
Pressure: 29.65"   Gusts: NA
Location:  51.17°N, 1.75°W
Report Text: EGDM 282150Z AUTO 07011KT 8000 -RA OVC050/// 10/09 Q1004
Loading
Personal Weather Stations






























Interactive Weather Map New forecast layout! Learn more

10-Day Weather Forecast

Advertisements
Track Severe Weather on mobile